createdAt,value
2023-04-20T00:01:55.328Z,50303.59
2023-04-20T00:04:23.545Z,50314.79
2023-04-20T00:06:52.168Z,50321.98
2023-04-20T00:09:22.868Z,50322.38
2023-04-20T00:11:51.167Z,50315.18
2023-04-20T00:14:19.921Z,50322.38
2023-04-20T00:16:49.116Z,50312.79
2023-04-20T00:19:18.004Z,50322.79
2023-04-20T00:21:46.546Z,50305.19
2023-04-20T00:24:14.792Z,50318.79
2023-04-20T00:26:43.044Z,50309.19
2023-04-20T00:29:11.761Z,50313.18
2023-04-20T00:31:40.087Z,50307.99
2023-04-20T00:34:08.288Z,50310.79
2023-04-20T00:36:36.573Z,50304.39
2023-04-20T00:39:05.908Z,50298.39
2023-04-20T00:41:34.105Z,50290.40
2023-04-20T00:44:02.430Z,50307.59
2023-04-20T00:46:30.656Z,50336.38
2023-04-20T00:48:59.545Z,50322.78
2023-04-20T00:51:28.938Z,50314.79
2023-04-20T00:53:57.644Z,50321.18
2023-04-20T00:56:26.738Z,50302.79
2023-04-20T00:58:55.488Z,50333.58
2023-04-20T01:01:23.737Z,50318.79
2023-04-20T01:03:52.449Z,50319.18
2023-04-20T01:06:21.705Z,50318.38
2023-04-20T01:08:51.874Z,50296.39
2023-04-20T01:11:20.324Z,50323.58
2023-04-20T01:13:50.029Z,50327.98
2023-04-20T01:16:18.437Z,50324.38
2023-04-20T01:18:49.542Z,50310.79
2023-04-20T01:21:21.610Z,50323.58
2023-04-20T01:23:50.258Z,50321.58
2023-04-20T01:26:21.602Z,50314.38
2023-04-20T01:28:52.041Z,50328.38
2023-04-20T01:31:21.185Z,50315.18
2023-04-20T01:33:50.165Z,50335.18
2023-04-20T01:36:22.201Z,50325.18
2023-04-20T01:38:51.528Z,50329.58
2023-04-20T01:41:19.745Z,50331.98
2023-04-20T01:43:48.038Z,50327.58
2023-04-20T01:46:16.235Z,50313.99
2023-04-20T01:48:44.543Z,50317.59
2023-04-20T01:51:12.804Z,50325.58
2023-04-20T01:53:41.944Z,50307.19
2023-04-20T01:56:10.130Z,50315.98
2023-04-20T01:58:38.325Z,50311.99
2023-04-20T02:01:06.668Z,50328.38
2023-04-20T02:03:35.339Z,50329.98
2023-04-20T02:06:03.941Z,50318.38
2023-04-20T02:08:33.583Z,50323.98
2023-04-20T02:11:02.267Z,50334.38
2023-04-20T02:13:30.578Z,50333.18
2023-04-20T02:16:00.132Z,50317.59
2023-04-20T02:18:30.456Z,50341.98
2023-04-20T02:20:59.709Z,50331.58
2023-04-20T02:23:29.203Z,50316.78
2023-04-20T02:25:58.141Z,50317.59
2023-04-20T02:28:26.589Z,50318.79
2023-04-20T02:30:54.784Z,50325.18
2023-04-20T02:33:23.188Z,50323.98
2023-04-20T02:35:54.722Z,50340.77
2023-04-20T02:38:22.930Z,50313.98
2023-04-20T02:40:51.170Z,50329.98
2023-04-20T02:43:19.526Z,50332.78
2023-04-20T02:45:48.527Z,50317.58
2023-04-20T02:48:16.870Z,50329.98
2023-04-20T02:50:46.136Z,50323.18
2023-04-20T02:53:23.491Z,50337.18
2023-04-20T02:56:03.357Z,50326.78
2023-04-20T02:58:43.873Z,50321.58
2023-04-20T03:01:41.607Z,50324.78
2023-04-20T03:04:14.072Z,50319.59
2023-04-20T03:06:57.380Z,50311.99
2023-04-20T03:09:29.141Z,50327.98
2023-04-20T03:12:02.739Z,50329.18
2023-04-20T03:14:50.237Z,50320.39
2023-04-20T03:17:20.744Z,50311.59
2023-04-20T03:19:49.035Z,50311.59
2023-04-20T03:22:19.427Z,50329.58
2023-04-20T03:24:50.799Z,50322.78
2023-04-20T03:27:33.614Z,50331.18
2023-04-20T03:30:11.813Z,50317.98
2023-04-20T03:32:41.243Z,50317.59
2023-04-20T03:35:10.405Z,50323.58
2023-04-20T03:37:38.719Z,50306.39
2023-04-20T03:40:10.388Z,50311.99
2023-04-20T03:42:38.697Z,50313.99
2023-04-20T03:45:07.666Z,50314.79
2023-04-20T03:47:36.262Z,50322.38
2023-04-20T03:50:04.995Z,50329.98
2023-04-20T03:52:34.951Z,50315.58
2023-04-20T03:55:06.128Z,50316.38
2023-04-20T03:57:35.471Z,50324.79
2023-04-20T04:00:04.974Z,50333.58
2023-04-20T04:02:47.292Z,50322.38
2023-04-20T04:05:20.385Z,50325.98
2023-04-20T04:07:56.443Z,50317.98
2023-04-20T04:10:25.030Z,50325.98
2023-04-20T04:12:56.114Z,50320.79
2023-04-20T04:15:24.447Z,50313.19
2023-04-20T04:17:59.220Z,50320.38
2023-04-20T04:20:28.276Z,50307.99
2023-04-20T04:22:57.624Z,50309.59
2023-04-20T04:25:46.356Z,50304.79
2023-04-20T04:28:16.747Z,50313.59
2023-04-20T04:30:52.549Z,50305.19
2023-04-20T04:33:22.084Z,50305.59
2023-04-20T04:35:51.364Z,50305.59
2023-04-20T04:38:19.994Z,50313.99
2023-04-20T04:40:53.019Z,50304.79
2023-04-20T04:43:21.306Z,50316.39
2023-04-20T04:45:58.748Z,50306.39
2023-04-20T04:48:28.061Z,50302.79
2023-04-20T04:50:57.393Z,50303.20
2023-04-20T04:53:25.687Z,50315.59
2023-04-20T04:55:54.044Z,50315.98
2023-04-20T04:58:22.853Z,50306.79
2023-04-20T05:00:51.907Z,50295.59
2023-04-20T05:03:21.019Z,50315.99
2023-04-20T05:05:49.483Z,50305.19
2023-04-20T05:08:17.817Z,50296.39
2023-04-20T05:10:46.546Z,50305.99
2023-04-20T05:13:15.418Z,50304.79
2023-04-20T05:15:44.373Z,50309.59
2023-04-20T05:18:12.940Z,50292.79
2023-04-20T05:20:41.296Z,50310.79
2023-04-20T05:23:09.617Z,50301.59
2023-04-20T05:25:38.082Z,50294.39
2023-04-20T05:28:06.792Z,50287.59
2023-04-20T05:30:36.459Z,50312.38
2023-04-20T05:33:04.870Z,50315.18
2023-04-20T05:35:33.248Z,50297.19
2023-04-20T05:38:04.098Z,50285.60
2023-04-20T05:40:35.059Z,50297.19
2023-04-20T05:43:04.407Z,50301.19
2023-04-20T05:45:34.509Z,50298.39
2023-04-20T05:48:02.932Z,50299.19
2023-04-20T05:50:31.479Z,50288.79
2023-04-20T05:53:00.119Z,50297.19
2023-04-20T05:55:28.378Z,50285.59
2023-04-20T05:57:57.946Z,50319.18
2023-04-20T06:00:26.460Z,50291.59
2023-04-20T06:02:55.373Z,50297.59
2023-04-20T06:05:24.006Z,50300.39
2023-04-20T06:07:52.889Z,50295.59
2023-04-20T06:10:21.205Z,50293.20
2023-04-20T06:12:49.436Z,50297.59
2023-04-20T06:15:17.800Z,50296.79
2023-04-20T06:17:47.632Z,50293.20
2023-04-20T06:20:16.994Z,50270.40
2023-04-20T06:22:45.775Z,50301.99
2023-04-20T06:25:15.042Z,50295.20
2023-04-20T06:27:43.345Z,50290.39
2023-04-20T06:30:12.861Z,50303.99
2023-04-20T06:32:41.426Z,50288.79
2023-04-20T06:35:09.973Z,50316.79
2023-04-20T06:37:38.970Z,50291.59
2023-04-20T06:40:10.884Z,50297.19
2023-04-20T06:42:39.145Z,50291.20
2023-04-20T06:45:08.338Z,50304.39
2023-04-20T06:47:37.155Z,50281.20
2023-04-20T06:50:09.373Z,50279.99
2023-04-20T06:52:39.290Z,50292.40
2023-04-20T06:55:08.894Z,50315.99
2023-04-20T06:57:38.946Z,50294.39
2023-04-20T07:00:09.948Z,50297.59
2023-04-20T07:02:51.931Z,50306.39
2023-04-20T07:05:20.473Z,50303.99
2023-04-20T07:07:48.834Z,50295.59
2023-04-20T07:10:17.209Z,50295.99
2023-04-20T07:12:45.576Z,50311.18
2023-04-20T07:15:14.157Z,50305.99
2023-04-20T07:17:42.457Z,50283.59
2023-04-20T07:20:11.387Z,50300.79
2023-04-20T07:22:39.894Z,50301.19
2023-04-20T07:25:10.466Z,50296.79
2023-04-20T07:27:41.006Z,50299.59
2023-04-20T07:30:11.017Z,50297.99
2023-04-20T07:32:41.758Z,50302.79
2023-04-20T07:35:10.472Z,50301.99
2023-04-20T07:37:39.115Z,50295.19
2023-04-20T07:40:08.355Z,50288.39
2023-04-20T07:42:37.545Z,50297.59
2023-04-20T07:45:10.555Z,50303.19
2023-04-20T07:47:39.306Z,50293.99
2023-04-20T07:50:09.585Z,50281.60
2023-04-20T07:52:37.889Z,50296.39
2023-04-20T07:55:08.362Z,50285.99
2023-04-20T07:57:36.866Z,50283.20
2023-04-20T08:00:10.565Z,50291.99
2023-04-20T08:02:41.644Z,50287.20
2023-04-20T08:05:11.758Z,50291.59
2023-04-20T08:07:42.149Z,50288.79
2023-04-20T08:10:11.451Z,50277.60
2023-04-20T08:12:41.700Z,50277.20
2023-04-20T08:15:11.050Z,50269.60
2023-04-20T08:17:39.319Z,50271.60
2023-04-20T08:20:10.830Z,50274.80
2023-04-20T08:22:39.502Z,50280.00
2023-04-20T08:25:08.367Z,50258.40
2023-04-20T08:27:37.355Z,50257.21
2023-04-20T08:30:06.781Z,50275.20
2023-04-20T08:32:35.089Z,50274.40
2023-04-20T08:35:04.831Z,50246.81
2023-04-20T08:37:33.197Z,50274.80
2023-04-20T08:40:01.743Z,50261.61
2023-04-20T08:42:32.197Z,50276.40
2023-04-20T08:45:01.997Z,50284.39
2023-04-20T08:47:33.256Z,50272.40
2023-04-20T08:50:05.493Z,50271.20
2023-04-20T08:52:36.437Z,50269.60
2023-04-20T08:55:04.896Z,50274.80
2023-04-20T08:57:33.450Z,50276.80
2023-04-20T09:00:05.786Z,50287.20
2023-04-20T09:02:34.912Z,50282.40
2023-04-20T09:05:06.115Z,50291.20
2023-04-20T09:07:35.476Z,50288.79
2023-04-20T09:10:06.025Z,50292.79
2023-04-20T09:12:43.264Z,50278.80
2023-04-20T09:15:11.775Z,50284.79
2023-04-20T09:17:41.465Z,50266.00
2023-04-20T09:20:11.633Z,50281.59
2023-04-20T09:22:41.241Z,50274.80
2023-04-20T09:25:17.995Z,50284.00
2023-04-20T09:28:01.943Z,50271.20
2023-04-20T09:30:45.635Z,50273.60
2023-04-20T09:33:15.629Z,50271.60
2023-04-20T09:35:46.142Z,50277.20
2023-04-20T09:38:17.780Z,50275.60
2023-04-20T09:40:46.822Z,50264.80
2023-04-20T09:43:45.855Z,50269.60
2023-04-20T09:46:17.874Z,50276.40
2023-04-20T09:48:47.486Z,50258.80
2023-04-20T09:51:16.781Z,50250.80
2023-04-20T09:53:46.830Z,50263.20
2023-04-20T09:56:16.857Z,50261.61
2023-04-20T09:58:47.106Z,50266.80
2023-04-20T10:01:15.673Z,50252.01
2023-04-20T10:03:45.268Z,50256.41
2023-04-20T10:06:26.502Z,50258.80
2023-04-20T10:08:56.262Z,50257.21
2023-04-20T10:11:52.636Z,50262.00
2023-04-20T10:14:27.307Z,50258.80
2023-04-20T10:17:05.919Z,50262.00
2023-04-20T10:19:42.140Z,50255.61
2023-04-20T10:22:13.952Z,50279.60
2023-04-20T10:24:42.415Z,50262.80
2023-04-20T10:27:21.322Z,50252.41
2023-04-20T10:29:49.872Z,50270.00
2023-04-20T10:32:24.924Z,50267.20
2023-04-20T10:35:08.860Z,50254.41
2023-04-20T10:37:51.017Z,50232.01
2023-04-20T10:40:27.347Z,50242.81
2023-04-20T10:42:55.914Z,50244.01
2023-04-20T10:45:38.782Z,50239.61
2023-04-20T10:48:09.412Z,50242.01
2023-04-20T10:50:38.400Z,50231.62
2023-04-20T10:53:17.379Z,50244.41
2023-04-20T10:55:46.069Z,50244.01
2023-04-20T10:58:26.846Z,50233.61
2023-04-20T11:01:03.750Z,50233.21
2023-04-20T11:03:37.223Z,50235.21
2023-04-20T11:06:05.807Z,50232.01
2023-04-20T11:08:39.471Z,50232.41
2023-04-20T11:11:28.811Z,50230.81
2023-04-20T11:14:09.445Z,50229.21
2023-04-20T11:16:51.308Z,50217.62
2023-04-20T11:19:39.532Z,50255.61
2023-04-20T11:22:07.915Z,50232.01
2023-04-20T11:24:41.480Z,50260.00
2023-04-20T11:27:22.437Z,50232.41
2023-04-20T11:29:58.654Z,50238.01
2023-04-20T11:32:28.037Z,50229.21
2023-04-20T11:35:08.344Z,50223.22
2023-04-20T11:37:48.321Z,50232.41
2023-04-20T11:40:17.589Z,50246.01
2023-04-20T11:42:46.532Z,50232.41
2023-04-20T11:45:15.988Z,50234.41
2023-04-20T11:47:46.103Z,50224.01
2023-04-20T11:50:15.557Z,50226.81
2023-04-20T11:52:44.166Z,50247.21
2023-04-20T11:55:13.665Z,50240.41
2023-04-20T11:57:42.075Z,50250.80
2023-04-20T12:00:10.897Z,50253.61
2023-04-20T12:02:42.264Z,50252.01
2023-04-20T12:05:12.013Z,50243.61
2023-04-20T12:07:40.483Z,50246.01
2023-04-20T12:10:09.357Z,50240.80
2023-04-20T12:12:38.970Z,50237.61
2023-04-20T12:15:08.443Z,50244.01
2023-04-20T12:17:36.744Z,50229.21
2023-04-20T12:20:09.053Z,50226.81
2023-04-20T12:22:37.426Z,50239.61
2023-04-20T12:25:06.969Z,50231.21
2023-04-20T12:27:35.489Z,50233.61
2023-04-20T12:30:04.800Z,50230.81
2023-04-20T12:32:33.161Z,50269.20
2023-04-20T12:35:01.739Z,50281.20
2023-04-20T12:37:30.142Z,50277.60
2023-04-20T12:39:58.873Z,50293.59
2023-04-20T12:42:27.219Z,50291.59
2023-04-20T12:44:56.453Z,50305.99
2023-04-20T12:47:27.500Z,50291.59
2023-04-20T12:49:56.419Z,50291.20
2023-04-20T12:52:25.669Z,50279.20
2023-04-20T12:54:53.936Z,50294.39
2023-04-20T12:57:23.411Z,50299.19
2023-04-20T12:59:52.214Z,50284.39
2023-04-20T13:02:20.726Z,50285.59
2023-04-20T13:04:49.742Z,50297.20
2023-04-20T13:07:18.170Z,50288.39
2023-04-20T13:09:46.726Z,50291.20
2023-04-20T13:12:15.187Z,50296.39
2023-04-20T13:14:47.473Z,50267.60
2023-04-20T13:17:16.968Z,50284.39
2023-04-20T13:19:50.245Z,50287.99
2023-04-20T13:22:19.056Z,50298.79
2023-04-20T13:24:47.679Z,50297.19
2023-04-20T13:27:16.252Z,50281.99
2023-04-20T13:29:47.784Z,50289.19
2023-04-20T13:32:16.542Z,50285.59
2023-04-20T13:34:44.858Z,50271.20
2023-04-20T13:37:13.490Z,50279.60
2023-04-20T13:39:42.447Z,50295.99
2023-04-20T13:42:10.722Z,50267.20
2023-04-20T13:44:39.812Z,50251.21
2023-04-20T13:47:08.141Z,50285.99
2023-04-20T13:49:39.477Z,50273.60
2023-04-20T13:52:09.640Z,50283.60
2023-04-20T13:54:39.174Z,50277.20
2023-04-20T13:57:07.400Z,50270.80
2023-04-20T13:59:38.777Z,50280.80
2023-04-20T14:02:07.034Z,50264.80
2023-04-20T14:04:35.409Z,50265.60
2023-04-20T14:07:03.667Z,50257.21
2023-04-20T14:09:32.585Z,50271.20
2023-04-20T14:12:02.376Z,50282.00
2023-04-20T14:14:30.632Z,50258.80
2023-04-20T14:16:59.414Z,50263.20
2023-04-20T14:19:27.809Z,50263.61
2023-04-20T14:21:56.088Z,50270.80
2023-04-20T14:24:24.330Z,50289.59
2023-04-20T14:26:52.713Z,50270.40
2023-04-20T14:29:21.339Z,50261.20
2023-04-20T14:31:49.820Z,50276.00
2023-04-20T14:34:18.369Z,50271.60
2023-04-20T14:36:47.563Z,50280.40
2023-04-20T14:39:16.329Z,50271.60
2023-04-20T14:41:46.156Z,50269.20
2023-04-20T14:44:14.512Z,50285.20
2023-04-20T14:46:43.761Z,50268.00
2023-04-20T14:49:12.038Z,50269.60
2023-04-20T14:51:40.362Z,50279.60
2023-04-20T14:54:10.298Z,50291.59
2023-04-20T14:56:40.895Z,50279.60
2023-04-20T14:59:10.273Z,50294.39
2023-04-20T15:01:40.061Z,50289.20
2023-04-20T15:04:13.853Z,50268.80
2023-04-20T15:06:44.763Z,50301.59
2023-04-20T15:09:15.029Z,50291.20
2023-04-20T15:11:43.185Z,50287.59
2023-04-20T15:14:12.189Z,50305.19
2023-04-20T15:16:40.864Z,50301.59
2023-04-20T15:19:12.776Z,50293.99
2023-04-20T15:21:42.689Z,50277.60
2023-04-20T15:24:11.998Z,50296.79
2023-04-20T15:26:40.769Z,50297.99
2023-04-20T15:29:09.529Z,50289.99
2023-04-20T15:31:37.766Z,50304.39
2023-04-20T15:34:06.622Z,50309.59
2023-04-20T15:36:35.038Z,50291.59
2023-04-20T15:39:04.035Z,50283.59
2023-04-20T15:41:32.342Z,50300.39
2023-04-20T15:44:00.596Z,50270.00
2023-04-20T15:46:31.780Z,50289.59
2023-04-20T15:49:00.150Z,50299.59
2023-04-20T15:51:30.236Z,50290.79
2023-04-20T15:53:58.513Z,50291.59
2023-04-20T15:56:26.783Z,50296.39
2023-04-20T15:58:55.299Z,50291.99
2023-04-20T16:01:23.540Z,50289.99
2023-04-20T16:03:52.056Z,50282.00
2023-04-20T16:06:22.989Z,50304.79
2023-04-20T16:08:56.852Z,50300.79
2023-04-20T16:11:25.147Z,50301.19
2023-04-20T16:14:00.135Z,50299.59
2023-04-20T16:16:28.574Z,50297.19
2023-04-20T16:18:57.169Z,50290.79
2023-04-20T16:21:25.535Z,50306.79
2023-04-20T16:23:57.202Z,50294.39
2023-04-20T16:26:28.652Z,50301.19
2023-04-20T16:28:57.457Z,50300.79
2023-04-20T16:31:27.487Z,50300.39
2023-04-20T16:33:56.473Z,50303.99
2023-04-20T16:36:27.217Z,50299.99
2023-04-20T16:38:55.506Z,50305.19
2023-04-20T16:41:27.278Z,50298.39
2023-04-20T16:43:56.333Z,50310.38
2023-04-20T16:46:29.736Z,50301.19
2023-04-20T16:49:00.414Z,50310.79
2023-04-20T16:51:29.464Z,50293.99
2023-04-20T16:53:57.730Z,50300.79
2023-04-20T16:56:28.993Z,50312.79
2023-04-20T16:58:58.110Z,50321.59
2023-04-20T17:01:27.785Z,50305.99
2023-04-20T17:03:59.928Z,50313.18
2023-04-20T17:06:28.216Z,50303.19
2023-04-20T17:09:05.606Z,50299.99
2023-04-20T17:11:39.756Z,50300.39
2023-04-20T17:14:08.961Z,50301.99
2023-04-20T17:16:37.332Z,50303.99
2023-04-20T17:19:05.802Z,50310.39
2023-04-20T17:21:40.646Z,50302.79
2023-04-20T17:24:08.828Z,50305.19
2023-04-20T17:26:40.284Z,50314.38
2023-04-20T17:29:10.463Z,50300.39
2023-04-20T17:31:39.369Z,50293.19
2023-04-20T17:34:08.193Z,50311.59
2023-04-20T17:36:38.488Z,50303.59
2023-04-20T17:39:07.137Z,50315.59
2023-04-20T17:41:37.164Z,50302.79
2023-04-20T17:44:05.756Z,50303.99
2023-04-20T17:46:34.147Z,50305.19
2023-04-20T17:49:03.753Z,50321.18
2023-04-20T17:51:35.153Z,50307.59
2023-04-20T17:54:03.829Z,50309.99
2023-04-20T17:56:32.337Z,50307.59
2023-04-20T17:59:00.684Z,50314.79
2023-04-20T18:01:34.505Z,50287.59
2023-04-20T18:04:04.194Z,50318.79
2023-04-20T18:06:33.904Z,50312.79
2023-04-20T18:09:04.994Z,50297.59
2023-04-20T18:11:33.247Z,50308.79
2023-04-20T18:14:01.573Z,50295.20
2023-04-20T18:16:29.811Z,50293.59
2023-04-20T18:18:58.138Z,50300.79
2023-04-20T18:21:29.945Z,50307.99
2023-04-20T18:23:58.195Z,50327.58
2023-04-20T18:26:26.363Z,50308.39
2023-04-20T18:28:54.667Z,50295.99
2023-04-20T18:31:23.037Z,50314.79
2023-04-20T18:33:51.284Z,50299.59
2023-04-20T18:36:19.500Z,50304.79
2023-04-20T18:38:47.822Z,50313.19
2023-04-20T18:41:17.202Z,50309.99
2023-04-20T18:43:45.813Z,50311.98
2023-04-20T18:46:18.098Z,50311.18
2023-04-20T18:48:47.975Z,50303.99
2023-04-20T18:51:18.640Z,50301.99
2023-04-20T18:53:48.038Z,50307.59
2023-04-20T18:56:16.508Z,50309.19
2023-04-20T18:58:46.143Z,50317.59
2023-04-20T19:01:14.935Z,50300.39
2023-04-20T19:03:47.177Z,50321.18
2023-04-20T19:06:18.303Z,50311.99
2023-04-20T19:08:46.943Z,50305.99
2023-04-20T19:11:16.237Z,50314.38
2023-04-20T19:13:45.536Z,50311.19
2023-04-20T19:16:13.958Z,50304.39
2023-04-20T19:18:43.887Z,50304.39
2023-04-20T19:21:14.678Z,50317.59
2023-04-20T19:23:43.001Z,50308.38
2023-04-20T19:26:11.252Z,50305.99
2023-04-20T19:28:40.915Z,50307.99
2023-04-20T19:31:11.150Z,50328.38
2023-04-20T19:33:40.478Z,50316.79
2023-04-20T19:36:08.763Z,50307.99
2023-04-20T19:38:38.802Z,50326.38
2023-04-20T19:41:07.605Z,50299.99
2023-04-20T19:43:37.767Z,50323.58
2023-04-20T19:46:09.992Z,50307.19
2023-04-20T19:48:41.156Z,50328.38
2023-04-20T19:51:12.584Z,50313.59
2023-04-20T19:53:41.673Z,50323.58
2023-04-20T19:56:12.222Z,50334.77
2023-04-20T19:58:40.548Z,50311.59
2023-04-20T20:01:08.795Z,50321.99
2023-04-20T20:03:37.423Z,50339.98
2023-04-20T20:06:08.855Z,50326.78
2023-04-20T20:08:37.353Z,50318.78
2023-04-20T20:11:05.700Z,50308.39
2023-04-20T20:13:33.896Z,50325.98
2023-04-20T20:16:04.316Z,50309.99
2023-04-20T20:18:32.649Z,50321.58
2023-04-20T20:21:01.556Z,50320.79
2023-04-20T20:23:32.433Z,50328.38
2023-04-20T20:26:03.430Z,50319.98
2023-04-20T20:28:31.720Z,50306.39
2023-04-20T20:31:00.031Z,50321.59
2023-04-20T20:33:28.590Z,50315.98
2023-04-20T20:35:58.285Z,50326.78
2023-04-20T20:38:26.692Z,50310.79
2023-04-20T20:40:55.118Z,50322.38
2023-04-20T20:43:25.666Z,50319.98
2023-04-20T20:45:54.025Z,50324.78
2023-04-20T20:48:24.995Z,50320.79
2023-04-20T20:50:53.168Z,50315.18
2023-04-20T20:53:22.952Z,50323.98
2023-04-20T20:55:51.336Z,50305.19
2023-04-20T20:58:19.587Z,50307.59
2023-04-20T21:00:48.159Z,50310.39
2023-04-20T21:03:16.583Z,50326.78
2023-04-20T21:05:45.131Z,50313.19
2023-04-20T21:08:13.327Z,50307.99
2023-04-20T21:10:41.559Z,50307.19
2023-04-20T21:13:09.857Z,50295.20
2023-04-20T21:15:38.022Z,50311.59
2023-04-20T21:18:06.479Z,50315.98
2023-04-20T21:20:34.772Z,50312.39
2023-04-20T21:23:03.046Z,50334.78
2023-04-20T21:25:31.239Z,50322.78
2023-04-20T21:27:59.457Z,50310.79
2023-04-20T21:30:28.478Z,50300.79
2023-04-20T21:32:56.779Z,50306.79
2023-04-20T21:35:25.043Z,50317.99
2023-04-20T21:37:56.412Z,50313.59
2023-04-20T21:40:25.534Z,50317.58
2023-04-20T21:42:53.802Z,50323.98
2023-04-20T21:45:22.005Z,50307.19
2023-04-20T21:47:50.228Z,50319.59
2023-04-20T21:50:18.891Z,50325.98
2023-04-20T21:52:47.081Z,50319.58
2023-04-20T21:55:15.264Z,50311.98
2023-04-20T21:57:43.409Z,50311.99
2023-04-20T22:00:12.402Z,50310.39
2023-04-20T22:02:43.266Z,50311.99
2023-04-20T22:05:11.994Z,50313.19
2023-04-20T22:07:40.370Z,50313.59
2023-04-20T22:10:09.348Z,50318.38
2023-04-20T22:12:40.909Z,50319.59
2023-04-20T22:15:13.878Z,50327.58
2023-04-20T22:17:45.526Z,50328.78
2023-04-20T22:20:15.961Z,50314.39
2023-04-20T22:22:44.199Z,50322.38
2023-04-20T22:25:12.792Z,50323.58
2023-04-20T22:27:42.347Z,50315.59
2023-04-20T22:30:14.144Z,50315.99
2023-04-20T22:32:42.408Z,50325.18
2023-04-20T22:35:10.668Z,50314.39
2023-04-20T22:37:38.953Z,50328.38
2023-04-20T22:40:08.273Z,50313.18
2023-04-20T22:42:36.548Z,50316.78
2023-04-20T22:45:05.463Z,50318.38
2023-04-20T22:47:34.268Z,50326.38
2023-04-20T22:50:03.505Z,50317.18
2023-04-20T22:52:32.532Z,50311.59
2023-04-20T22:55:00.997Z,50327.98
2023-04-20T22:57:29.241Z,50326.38
2023-04-20T22:59:57.428Z,50327.18
2023-04-20T23:02:25.967Z,50325.58
2023-04-20T23:04:54.328Z,50319.18
2023-04-20T23:07:22.513Z,50325.58
2023-04-20T23:09:51.146Z,50319.18
2023-04-20T23:12:20.947Z,50328.38
2023-04-20T23:14:51.177Z,50309.59
2023-04-20T23:17:19.540Z,50334.38
2023-04-20T23:19:47.749Z,50322.38
2023-04-20T23:22:17.152Z,50307.19
2023-04-20T23:24:45.626Z,50311.99
2023-04-20T23:27:13.872Z,50315.99
2023-04-20T23:29:43.342Z,50306.39
2023-04-20T23:32:13.812Z,50338.78
2023-04-20T23:34:44.774Z,50323.18
2023-04-20T23:37:13.677Z,50320.78
2023-04-20T23:39:41.909Z,50319.58
2023-04-20T23:42:10.134Z,50311.59
2023-04-20T23:44:38.394Z,50317.19
2023-04-20T23:47:06.553Z,50330.78
2023-04-20T23:49:35.268Z,50330.38
2023-04-20T23:52:04.760Z,50311.99
2023-04-20T23:54:33.531Z,50318.78
2023-04-20T23:57:03.599Z,50316.39
2023-04-20T23:59:31.840Z,50323.58
